createdAt,value
2022-08-26T00:00:52.005Z,84.53
2022-08-26T00:03:21.233Z,84.92
2022-08-26T00:05:51.504Z,85.45
2022-08-26T00:08:21.405Z,85.52
2022-08-26T00:10:51.572Z,85.68
2022-08-26T00:13:20.211Z,86.05
2022-08-26T00:15:48.295Z,85.57
2022-08-26T00:18:22.226Z,85.97
2022-08-26T00:20:51.407Z,85.60
2022-08-26T00:23:19.521Z,85.89
2022-08-26T00:25:48.389Z,85.80
2022-08-26T00:28:19.045Z,85.40
2022-08-26T00:30:51.710Z,85.31
2022-08-26T00:33:21.106Z,85.38
2022-08-26T00:35:49.488Z,84.67
2022-08-26T00:38:23.018Z,85.17
2022-08-26T00:40:53.974Z,85.70
2022-08-26T00:43:25.450Z,85.71
2022-08-26T00:46:02.382Z,85.81
2022-08-26T00:48:34.378Z,85.22
2022-08-26T00:51:07.812Z,85.64
2022-08-26T00:53:41.452Z,86.10
2022-08-26T00:56:15.393Z,86.12
2022-08-26T00:58:45.614Z,85.54
2022-08-26T01:01:14.040Z,85.53
2022-08-26T01:03:45.281Z,85.25
2022-08-26T01:06:14.442Z,85.40
2022-08-26T01:08:42.952Z,85.40
2022-08-26T01:11:11.868Z,85.45
2022-08-26T01:13:40.432Z,84.82
2022-08-26T01:16:14.654Z,85.69
2022-08-26T01:18:45.227Z,86.00
2022-08-26T01:21:20.455Z,86.16
2022-08-26T01:23:57.478Z,86.30
2022-08-26T01:26:30.053Z,86.23
2022-08-26T01:29:00.992Z,87.05
2022-08-26T01:31:32.794Z,86.90
2022-08-26T01:34:07.612Z,87.09
2022-08-26T01:36:39.076Z,86.03
2022-08-26T01:39:09.303Z,85.89
2022-08-26T01:41:40.747Z,86.38
2022-08-26T01:44:17.980Z,86.39
2022-08-26T01:46:48.192Z,85.97
2022-08-26T01:49:20.406Z,85.64
2022-08-26T01:51:50.328Z,85.86
2022-08-26T01:54:22.945Z,85.12
2022-08-26T01:56:52.297Z,84.95
2022-08-26T01:59:23.777Z,85.08
2022-08-26T02:01:52.733Z,85.06
2022-08-26T02:04:25.231Z,85.03
2022-08-26T02:06:54.686Z,84.76
2022-08-26T02:09:25.687Z,85.00
2022-08-26T02:11:54.992Z,84.74
2022-08-26T02:14:27.871Z,84.69
2022-08-26T02:16:57.299Z,85.41
2022-08-26T02:19:31.037Z,84.77
2022-08-26T02:22:02.287Z,84.31
2022-08-26T02:24:49.619Z,84.72
2022-08-26T02:27:19.918Z,84.47
2022-08-26T02:29:52.412Z,84.67
2022-08-26T02:32:20.927Z,85.07
2022-08-26T02:34:48.956Z,85.15
2022-08-26T02:37:17.716Z,84.71
2022-08-26T02:39:48.081Z,84.89
2022-08-26T02:42:16.126Z,85.35
2022-08-26T02:44:44.110Z,86.05
2022-08-26T02:47:15.605Z,86.12
2022-08-26T02:49:44.685Z,86.15
2022-08-26T02:52:16.125Z,85.15
2022-08-26T02:54:44.457Z,86.26
2022-08-26T02:57:15.239Z,85.47
2022-08-26T02:59:43.785Z,85.82
2022-08-26T03:02:12.894Z,86.05
2022-08-26T03:04:57.351Z,85.49
2022-08-26T03:07:26.934Z,85.43
2022-08-26T03:09:54.933Z,84.94
2022-08-26T03:12:24.306Z,85.47
2022-08-26T03:14:54.533Z,85.41
2022-08-26T03:17:22.578Z,85.19
2022-08-26T03:19:54.669Z,85.06
2022-08-26T03:22:26.273Z,85.56
2022-08-26T03:24:55.832Z,85.37
2022-08-26T03:27:25.100Z,85.56
2022-08-26T03:30:11.833Z,85.77
2022-08-26T03:32:41.560Z,86.73
2022-08-26T03:35:10.971Z,86.21
2022-08-26T03:37:38.928Z,86.26
2022-08-26T03:40:10.827Z,86.19
2022-08-26T03:42:44.479Z,86.73
2022-08-26T03:45:18.669Z,87.17
2022-08-26T03:47:47.209Z,86.85
2022-08-26T03:50:24.280Z,87.17
2022-08-26T03:52:54.813Z,86.94
2022-08-26T03:55:24.986Z,86.56
2022-08-26T03:57:55.004Z,87.61
2022-08-26T04:00:23.423Z,87.51
2022-08-26T04:02:53.202Z,87.58
2022-08-26T04:05:23.502Z,87.60
2022-08-26T04:07:51.702Z,87.63
2022-08-26T04:10:26.394Z,87.53
2022-08-26T04:12:59.755Z,87.88
2022-08-26T04:15:28.547Z,88.23
2022-08-26T04:17:57.574Z,88.26
2022-08-26T04:20:26.201Z,88.48
2022-08-26T04:22:54.827Z,88.60
2022-08-26T04:25:24.174Z,88.90
2022-08-26T04:27:52.544Z,88.65
2022-08-26T04:30:22.267Z,89.37
2022-08-26T04:32:50.243Z,89.11
2022-08-26T04:35:18.576Z,89.10
2022-08-26T04:37:50.920Z,89.14
2022-08-26T04:40:19.039Z,89.31
2022-08-26T04:42:47.169Z,89.08
2022-08-26T04:45:16.901Z,88.82
2022-08-26T04:47:46.917Z,88.30
2022-08-26T04:50:15.297Z,88.10
2022-08-26T04:52:46.567Z,87.97
2022-08-26T04:55:14.971Z,87.20
2022-08-26T04:57:43.856Z,86.65
2022-08-26T05:00:13.308Z,85.75
2022-08-26T05:02:41.976Z,85.14
2022-08-26T05:05:12.274Z,84.40
2022-08-26T05:07:40.596Z,83.24
2022-08-26T05:10:10.088Z,82.30
2022-08-26T05:12:39.310Z,80.76
2022-08-26T05:15:10.349Z,77.19
2022-08-26T05:17:38.303Z,73.54
2022-08-26T05:20:07.391Z,71.64
2022-08-26T05:22:36.658Z,69.25
2022-08-26T05:25:05.842Z,66.55
2022-08-26T05:27:33.780Z,64.73
2022-08-26T05:30:02.511Z,59.80
2022-08-26T05:32:32.402Z,60.31
2022-08-26T05:35:00.281Z,60.23
2022-08-26T05:37:29.172Z,58.15
2022-08-26T05:39:58.732Z,55.63
2022-08-26T05:42:26.698Z,52.46
2022-08-26T05:44:56.351Z,50.08
2022-08-26T05:47:24.745Z,47.48
2022-08-26T05:49:55.005Z,45.65
2022-08-26T05:52:24.533Z,45.37
2022-08-26T05:54:54.303Z,45.76
2022-08-26T05:57:24.325Z,44.24
2022-08-26T05:59:52.721Z,43.08
2022-08-26T06:02:20.682Z,42.33
2022-08-26T06:04:49.130Z,40.18
2022-08-26T06:07:17.141Z,40.85
2022-08-26T06:09:46.991Z,40.75
2022-08-26T06:12:15.798Z,39.80
2022-08-26T06:14:49.032Z,39.35
2022-08-26T06:17:16.992Z,37.88
2022-08-26T06:19:45.763Z,37.15
2022-08-26T06:22:28.045Z,37.19
2022-08-26T06:25:14.249Z,37.02
2022-08-26T06:27:42.775Z,36.31
2022-08-26T06:30:14.210Z,34.99
2022-08-26T06:32:43.885Z,33.98
2022-08-26T06:35:12.484Z,33.68
2022-08-26T06:37:40.537Z,33.61
2022-08-26T06:40:11.583Z,34.36
2022-08-26T06:42:42.444Z,36.02
2022-08-26T06:45:20.216Z,32.79
2022-08-26T06:47:49.447Z,32.51
2022-08-26T06:50:17.620Z,31.88
2022-08-26T06:52:46.653Z,31.40
2022-08-26T06:55:14.730Z,32.75
2022-08-26T06:57:42.945Z,30.73
2022-08-26T07:00:15.713Z,30.98
2022-08-26T07:02:47.084Z,29.81
2022-08-26T07:05:15.851Z,29.43
2022-08-26T07:07:43.790Z,29.38
2022-08-26T07:10:12.412Z,31.44
2022-08-26T07:12:40.302Z,34.29
2022-08-26T07:15:10.709Z,32.27
2022-08-26T07:17:40.333Z,33.03
2022-08-26T07:20:09.924Z,29.52
2022-08-26T07:22:38.311Z,29.22
2022-08-26T07:25:09.550Z,28.48
2022-08-26T07:27:38.830Z,27.37
2022-08-26T07:30:08.888Z,27.42
2022-08-26T07:32:37.558Z,29.06
2022-08-26T07:35:08.227Z,31.21
2022-08-26T07:37:39.324Z,37.47
2022-08-26T07:40:08.860Z,36.56
2022-08-26T07:42:37.357Z,37.31
2022-08-26T07:45:06.142Z,35.53
2022-08-26T07:47:34.586Z,37.38
2022-08-26T07:50:02.477Z,37.02
2022-08-26T07:52:32.449Z,36.82
2022-08-26T07:55:04.851Z,36.27
2022-08-26T07:57:34.554Z,37.29
2022-08-26T08:00:03.392Z,35.93
2022-08-26T08:02:31.823Z,34.93
2022-08-26T08:05:00.350Z,37.19
2022-08-26T08:07:44.397Z,36.14
2022-08-26T08:10:17.696Z,37.15
2022-08-26T08:12:46.623Z,36.81
2022-08-26T08:15:17.739Z,34.42
2022-08-26T08:17:45.826Z,33.24
2022-08-26T08:20:15.938Z,32.50
2022-08-26T08:22:44.092Z,34.16
2022-08-26T08:25:14.723Z,32.74
2022-08-26T08:27:45.558Z,31.01
2022-08-26T08:30:14.441Z,28.43
2022-08-26T08:32:43.618Z,27.70
2022-08-26T08:35:13.889Z,27.00
2022-08-26T08:37:42.658Z,26.23
2022-08-26T08:40:18.291Z,24.74
2022-08-26T08:45:36.608Z,24.40
2022-08-26T08:48:08.415Z,23.78
2022-08-26T08:50:45.833Z,24.84
2022-08-26T08:53:17.811Z,25.62
2022-08-26T08:56:02.012Z,23.78
2022-08-26T08:58:44.117Z,22.82
2022-08-26T09:01:21.091Z,23.67
2022-08-26T09:03:57.098Z,24.96
2022-08-26T09:06:27.764Z,24.72
2022-08-26T09:08:57.956Z,23.83
2022-08-26T09:11:27.481Z,23.01
2022-08-26T09:13:58.196Z,20.83
2022-08-26T09:16:36.062Z,21.22
2022-08-26T09:19:18.879Z,19.87
2022-08-26T09:21:57.826Z,21.16
2022-08-26T09:24:28.313Z,25.84
2022-08-26T09:26:59.182Z,24.38
2022-08-26T09:29:34.408Z,24.79
2022-08-26T09:32:21.098Z,25.62
2022-08-26T09:35:00.122Z,22.07
2022-08-26T09:37:41.109Z,23.16
2022-08-26T09:40:18.615Z,24.98
2022-08-26T09:43:10.724Z,21.85
2022-08-26T09:45:40.542Z,21.96
2022-08-26T09:48:31.288Z,20.19
2022-08-26T09:51:03.127Z,19.63
2022-08-26T09:53:36.577Z,19.60
2022-08-26T09:56:18.321Z,19.07
2022-08-26T09:58:48.952Z,21.95
2022-08-26T10:01:26.344Z,23.16
2022-08-26T10:03:54.461Z,23.91
2022-08-26T10:06:27.184Z,22.87
2022-08-26T10:08:59.181Z,25.67
2022-08-26T10:11:35.931Z,23.17
2022-08-26T10:14:13.103Z,25.74
2022-08-26T10:16:48.479Z,22.04
2022-08-26T10:19:20.566Z,22.52
2022-08-26T10:21:56.692Z,25.57
2022-08-26T10:24:31.521Z,24.16
2022-08-26T10:27:06.043Z,24.36
2022-08-26T10:29:43.903Z,21.58
2022-08-26T10:32:18.326Z,21.44
2022-08-26T10:34:46.561Z,23.75
2022-08-26T10:37:19.921Z,22.95
2022-08-26T10:39:58.509Z,21.54
2022-08-26T10:42:35.699Z,24.91
2022-08-26T10:45:15.080Z,25.12
2022-08-26T10:47:50.006Z,26.78
2022-08-26T10:50:19.428Z,24.82
2022-08-26T10:52:58.899Z,23.57
2022-08-26T10:55:37.592Z,22.00
2022-08-26T10:58:26.220Z,21.55
2022-08-26T11:01:22.849Z,21.29
2022-08-26T11:03:59.222Z,23.49
2022-08-26T11:06:29.284Z,24.07
2022-08-26T11:08:59.568Z,23.16
2022-08-26T11:11:50.830Z,29.43
2022-08-26T11:14:58.635Z,30.54
2022-08-26T11:18:07.154Z,33.20
2022-08-26T11:20:41.886Z,36.62
2022-08-26T11:23:40.422Z,36.70
2022-08-26T11:26:32.804Z,36.18
2022-08-26T11:29:04.561Z,36.83
2022-08-26T11:31:55.747Z,37.14
2022-08-26T11:34:56.386Z,38.26
2022-08-26T11:37:34.729Z,38.00
2022-08-26T11:40:07.723Z,39.83
2022-08-26T11:42:41.629Z,39.34
2022-08-26T11:45:19.812Z,46.06
2022-08-26T11:47:49.432Z,56.71
2022-08-26T11:50:23.275Z,59.92
2022-08-26T11:52:59.513Z,56.42
2022-08-26T11:55:27.491Z,50.56
2022-08-26T11:57:58.163Z,48.92
2022-08-26T12:00:33.746Z,48.72
2022-08-26T12:03:07.826Z,47.86
2022-08-26T12:05:43.731Z,47.34
2022-08-26T12:08:16.684Z,47.71
2022-08-26T12:10:44.723Z,46.84
2022-08-26T12:13:22.687Z,46.53
2022-08-26T12:15:55.928Z,47.40
2022-08-26T12:18:29.547Z,46.74
2022-08-26T12:21:02.677Z,44.21
2022-08-26T12:23:43.266Z,43.92
2022-08-26T12:26:19.906Z,42.58
2022-08-26T12:28:50.763Z,42.87
2022-08-26T12:31:37.949Z,42.24
2022-08-26T12:34:17.673Z,41.12
2022-08-26T12:36:50.433Z,41.60
2022-08-26T12:39:27.854Z,41.40
2022-08-26T12:41:57.798Z,42.29
2022-08-26T12:44:53.965Z,42.60
2022-08-26T12:47:39.015Z,41.55
2022-08-26T12:50:17.813Z,40.46
2022-08-26T12:52:57.360Z,40.64
2022-08-26T12:55:29.347Z,40.99
2022-08-26T12:58:11.703Z,40.45
2022-08-26T13:00:41.778Z,40.09
2022-08-26T13:03:31.741Z,41.38
2022-08-26T13:06:25.771Z,41.77
2022-08-26T13:08:57.784Z,41.11
2022-08-26T13:11:27.756Z,41.95
2022-08-26T13:13:59.155Z,41.14
2022-08-26T13:16:27.532Z,40.68
2022-08-26T13:18:57.633Z,40.79
2022-08-26T13:21:28.431Z,39.65
2022-08-26T13:24:06.166Z,40.03
2022-08-26T13:26:35.133Z,41.33
2022-08-26T13:29:05.369Z,40.57
2022-08-26T13:31:37.478Z,41.67
2022-08-26T13:34:05.580Z,41.80
2022-08-26T13:36:33.866Z,41.14
2022-08-26T13:39:03.219Z,41.09
2022-08-26T13:41:32.275Z,40.41
2022-08-26T13:44:00.232Z,40.82
2022-08-26T13:46:29.105Z,40.57
2022-08-26T13:48:57.223Z,39.90
2022-08-26T13:51:26.151Z,40.17
2022-08-26T13:53:54.925Z,40.40
2022-08-26T13:56:27.425Z,39.97
2022-08-26T13:58:55.271Z,42.11
2022-08-26T14:01:23.992Z,42.79
2022-08-26T14:03:52.008Z,43.96
2022-08-26T14:06:20.655Z,45.06
2022-08-26T14:08:49.480Z,45.00
2022-08-26T14:11:17.911Z,44.21
2022-08-26T14:13:47.269Z,43.90
2022-08-26T14:16:22.801Z,44.01
2022-08-26T14:18:51.232Z,45.03
2022-08-26T14:21:21.209Z,44.55
2022-08-26T14:23:49.216Z,44.31
2022-08-26T14:26:28.981Z,44.53
2022-08-26T14:28:59.764Z,44.46
2022-08-26T14:31:29.628Z,45.13
2022-08-26T14:33:59.202Z,44.74
2022-08-26T14:36:32.495Z,44.99
2022-08-26T14:39:04.123Z,45.90
2022-08-26T14:41:33.603Z,45.90
2022-08-26T14:44:05.409Z,46.67
2022-08-26T14:46:39.972Z,47.75
2022-08-26T14:49:10.746Z,47.20
2022-08-26T14:51:39.541Z,47.65
2022-08-26T14:54:13.529Z,47.79
2022-08-26T14:56:46.386Z,48.94
2022-08-26T14:59:19.126Z,50.01
2022-08-26T15:01:48.444Z,53.01
2022-08-26T15:04:17.037Z,53.17
2022-08-26T15:06:45.396Z,53.84
2022-08-26T15:09:13.617Z,55.26
2022-08-26T15:11:42.018Z,54.77
2022-08-26T15:14:19.100Z,55.04
2022-08-26T15:16:49.880Z,54.61
2022-08-26T15:19:18.228Z,54.59
2022-08-26T15:21:47.659Z,53.36
2022-08-26T15:24:18.184Z,52.61
2022-08-26T15:26:47.440Z,52.00
2022-08-26T15:29:15.889Z,51.83
2022-08-26T15:31:44.480Z,50.68
2022-08-26T15:34:16.971Z,51.42
2022-08-26T15:36:47.265Z,51.68
2022-08-26T15:39:17.167Z,51.95
2022-08-26T15:41:45.544Z,52.39
2022-08-26T15:44:16.528Z,52.20
2022-08-26T15:46:45.530Z,53.10
2022-08-26T15:49:17.518Z,53.23
2022-08-26T15:51:48.273Z,54.01
2022-08-26T15:54:18.116Z,53.92
2022-08-26T15:56:48.479Z,53.12
2022-08-26T15:59:17.199Z,52.17
2022-08-26T16:01:45.798Z,52.09
2022-08-26T16:04:15.156Z,52.31
2022-08-26T16:06:43.686Z,51.67
2022-08-26T16:09:11.964Z,52.07
2022-08-26T16:11:40.375Z,52.51
2022-08-26T16:14:08.360Z,52.65
2022-08-26T16:16:39.609Z,53.09
2022-08-26T16:19:07.867Z,53.02
2022-08-26T16:21:37.450Z,53.62
2022-08-26T16:24:06.142Z,52.85
2022-08-26T16:26:37.586Z,53.41
2022-08-26T16:29:08.681Z,52.94
2022-08-26T16:31:38.404Z,52.58
2022-08-26T16:34:06.624Z,53.13
2022-08-26T16:36:35.744Z,54.35
2022-08-26T16:39:07.193Z,55.59
2022-08-26T16:41:35.740Z,57.50
2022-08-26T16:44:04.879Z,56.57
2022-08-26T16:46:34.114Z,55.84
2022-08-26T16:49:04.563Z,54.69
2022-08-26T16:51:37.725Z,57.21
2022-08-26T16:54:08.885Z,59.55
2022-08-26T16:56:37.622Z,59.38
2022-08-26T16:59:08.051Z,63.23
2022-08-26T17:01:36.222Z,64.53
2022-08-26T17:04:04.780Z,66.13
2022-08-26T17:06:33.181Z,68.03
2022-08-26T17:09:01.666Z,71.93
2022-08-26T17:11:31.340Z,78.81
2022-08-26T17:13:59.681Z,81.14
2022-08-26T17:16:27.735Z,83.99
2022-08-26T17:18:57.255Z,85.46
2022-08-26T17:21:26.011Z,87.71
2022-08-26T17:23:54.410Z,88.60
2022-08-26T17:26:22.455Z,89.64
2022-08-26T17:28:52.531Z,91.10
2022-08-26T17:31:21.475Z,92.10
2022-08-26T17:33:53.524Z,93.28
2022-08-26T17:36:27.879Z,93.31
2022-08-26T17:38:57.916Z,93.77
2022-08-26T17:41:26.971Z,94.04
2022-08-26T17:43:56.831Z,94.11
2022-08-26T17:46:25.208Z,93.13
2022-08-26T17:48:53.657Z,93.71
2022-08-26T17:51:23.446Z,95.50
2022-08-26T17:53:52.235Z,95.92
2022-08-26T17:56:23.922Z,95.69
2022-08-26T17:58:53.098Z,95.09
2022-08-26T18:01:23.478Z,95.17
2022-08-26T18:03:51.588Z,95.22
2022-08-26T18:06:21.524Z,94.67
2022-08-26T18:08:51.697Z,94.47
2022-08-26T18:11:23.049Z,94.21
2022-08-26T18:13:51.672Z,94.11
2022-08-26T18:16:19.809Z,94.21
2022-08-26T18:18:53.770Z,94.60
2022-08-26T18:21:24.325Z,94.87
2022-08-26T18:23:53.347Z,94.44
2022-08-26T18:26:23.884Z,94.23
2022-08-26T18:28:52.289Z,94.98
2022-08-26T18:31:20.662Z,95.58
2022-08-26T18:33:50.464Z,94.88
2022-08-26T18:36:20.256Z,94.74
2022-08-26T18:38:50.636Z,94.22
2022-08-26T18:41:20.713Z,93.57
2022-08-26T18:43:50.756Z,93.71
2022-08-26T18:46:20.400Z,93.98
2022-08-26T18:48:51.237Z,94.27
2022-08-26T18:51:21.457Z,93.60
2022-08-26T18:53:49.981Z,93.86
2022-08-26T18:56:18.704Z,94.29
2022-08-26T18:58:47.913Z,93.96
2022-08-26T19:01:16.697Z,94.39
2022-08-26T19:03:45.279Z,94.48
2022-08-26T19:06:16.782Z,94.12
2022-08-26T19:08:45.143Z,94.35
2022-08-26T19:11:31.154Z,94.72
2022-08-26T19:14:00.027Z,95.03
2022-08-26T19:16:28.978Z,94.66
2022-08-26T19:18:58.793Z,94.59
2022-08-26T19:21:29.371Z,94.93
2022-08-26T19:23:58.655Z,95.34
2022-08-26T19:26:27.632Z,95.54
2022-08-26T19:28:56.016Z,95.08
2022-08-26T19:31:24.155Z,95.08
2022-08-26T19:33:52.540Z,95.34
2022-08-26T19:36:22.794Z,94.77
2022-08-26T19:38:52.735Z,94.81
2022-08-26T19:41:26.571Z,95.04
2022-08-26T19:44:09.310Z,95.79
2022-08-26T19:49:07.673Z,95.24
2022-08-26T19:51:37.673Z,95.17
2022-08-26T19:54:07.613Z,95.82
2022-08-26T19:56:35.611Z,95.89
2022-08-26T19:59:03.949Z,96.20
2022-08-26T20:01:32.049Z,96.97
2022-08-26T20:04:00.467Z,96.38
2022-08-26T20:06:28.550Z,96.31
2022-08-26T20:08:56.877Z,96.33
2022-08-26T20:11:26.525Z,96.26
2022-08-26T20:13:55.695Z,97.39
2022-08-26T20:16:23.869Z,96.99
2022-08-26T20:19:09.580Z,96.56
2022-08-26T20:21:39.839Z,96.96
2022-08-26T20:24:10.480Z,96.54
2022-08-26T20:26:42.873Z,96.91
2022-08-26T20:29:12.905Z,96.53
2022-08-26T20:31:49.902Z,96.94
2022-08-26T20:34:20.258Z,96.77
2022-08-26T20:36:49.479Z,96.77
2022-08-26T20:39:19.798Z,96.01
2022-08-26T20:41:48.199Z,96.04
2022-08-26T20:44:16.807Z,96.11
2022-08-26T20:46:45.325Z,96.19
2022-08-26T20:49:15.251Z,96.29
2022-08-26T20:51:43.883Z,96.35
2022-08-26T20:54:12.417Z,96.85
2022-08-26T20:56:40.845Z,96.51
2022-08-26T20:59:09.687Z,96.42
2022-08-26T21:01:42.253Z,97.39
2022-08-26T21:04:14.260Z,99.71
2022-08-26T21:06:52.641Z,100.00
2022-08-26T21:09:22.233Z,100.00
2022-08-26T21:11:51.303Z,99.80
2022-08-26T21:14:20.909Z,99.01
2022-08-26T21:16:48.922Z,98.38
2022-08-26T21:19:19.170Z,98.77
2022-08-26T21:21:49.314Z,99.60
2022-08-26T21:24:17.738Z,99.79
2022-08-26T21:26:46.056Z,99.96
2022-08-26T21:29:14.916Z,99.61
2022-08-26T21:31:46.531Z,99.72
2022-08-26T21:34:16.123Z,98.88
2022-08-26T21:36:44.187Z,97.97
2022-08-26T21:39:13.855Z,97.59
2022-08-26T21:41:42.980Z,97.63
2022-08-26T21:44:11.995Z,97.20
2022-08-26T21:46:40.204Z,96.56
2022-08-26T21:49:11.124Z,97.40
2022-08-26T21:51:41.250Z,97.38
2022-08-26T21:54:11.481Z,96.76
2022-08-26T21:56:47.115Z,96.61
2022-08-26T21:59:16.859Z,96.71
2022-08-26T22:01:44.814Z,96.69
2022-08-26T22:04:12.841Z,96.31
2022-08-26T22:06:43.410Z,95.83
2022-08-26T22:09:12.127Z,96.02
2022-08-26T22:11:41.840Z,95.43
2022-08-26T22:14:11.410Z,94.85
2022-08-26T22:16:39.425Z,95.28
2022-08-26T22:19:07.841Z,95.54
2022-08-26T22:21:40.671Z,95.37
2022-08-26T22:24:12.479Z,95.05
2022-08-26T22:26:41.880Z,94.96
2022-08-26T22:29:10.271Z,95.92
2022-08-26T22:31:38.896Z,95.55
2022-08-26T22:34:09.897Z,95.52
2022-08-26T22:36:43.320Z,95.35
2022-08-26T22:39:13.368Z,95.66
2022-08-26T22:41:43.635Z,95.72
2022-08-26T22:44:13.120Z,96.18
2022-08-26T22:46:42.769Z,96.82
2022-08-26T22:49:12.858Z,97.16
2022-08-26T22:51:40.761Z,97.00
2022-08-26T22:54:08.745Z,96.33
2022-08-26T22:56:37.201Z,96.47
2022-08-26T22:59:08.078Z,97.40
2022-08-26T23:01:37.559Z,97.93
2022-08-26T23:04:07.720Z,96.67
2022-08-26T23:06:37.587Z,97.92
2022-08-26T23:09:07.455Z,97.90
2022-08-26T23:11:36.266Z,99.44
2022-08-26T23:14:06.286Z,98.92
2022-08-26T23:16:39.171Z,99.00
2022-08-26T23:19:08.364Z,98.13
2022-08-26T23:21:36.969Z,97.94
2022-08-26T23:24:05.731Z,97.60
2022-08-26T23:26:34.068Z,97.20
2022-08-26T23:29:02.101Z,97.35
2022-08-26T23:31:30.199Z,97.80
2022-08-26T23:34:17.575Z,97.97
2022-08-26T23:36:46.265Z,98.40
2022-08-26T23:39:15.567Z,98.28
2022-08-26T23:41:43.845Z,97.27
2022-08-26T23:44:12.762Z,97.37
2022-08-26T23:46:40.911Z,97.02
2022-08-26T23:49:10.804Z,96.48
2022-08-26T23:51:57.124Z,96.97
2022-08-26T23:54:25.280Z,96.69
2022-08-26T23:56:53.389Z,96.43
2022-08-26T23:59:21.850Z,96.45
